Terminal Aerodrome Forecast
Issued by NWS Tuscon, AZ

Home | Current Version | Previous Version | Text Only | Print | Product List | Glossary On
Versions: 1 2 3 4 5 6 7 8 9 10 11 12
517
FTUS45 KTWC 241120
TAFDUG
TAF
KDUG 241120Z 2412/2512 17007KT P6SM SKC
     FM241600 21014G22KT P6SM SKC
     FM241900 23022G30KT P6SM SKC
     FM250200 24012G18KT P6SM SKC
     FM250600 17007KT P6SM SKC=

USA.gov is the U.S. government's official web portal to all federal, state and local government web resources and services.